STORD / SOERSTOKKEN current weather conditions

sailwx.info

Wind from 120 at 7 knots

Air temperature 3.0° C
Visibility: greater than 5.4 NM
Dewpoint 2.0° C

Last reported at 2015-Apr-28 05:20 UTC.
Time now 2015-Apr-28 06:47 UTC

Location: N 59°48' E 005°21'.
View on Google Maps.

See reports from other nearby stations

  
Tides and Currents Weather Stations Pressure Air Temp Water Temp Dewpoint Dewpoint Depression Visibility Wind Speed Wind Dir Waves Ship Positions
date/time (UTC)wind fromknots sea level pressurealtimeterstation pressurevisibilityair tempwater tempwave heightnotes
2015-Apr-28 05:20 120 7 5.4 3.0
2015-Apr-28 04:50 110 7 5.4 2.0
2015-Apr-28 04:20 130 7 5.4 2.0
2015-Apr-27 17:20 310 11 5.4 6.0 Showers in the vicinity.
2015-Apr-27 15:20 330 8 5.410.0 Showers in the vicinity.
2015-Apr-27 14:20 270 8 5.4 7.0 Showers in the vicinity.
2015-Apr-27 13:50 280 7 5.4 7.0 Showers in the vicinity.
2015-Apr-27 13:20 320 8 5.4 8.0 Showers in the vicinity.
2015-Apr-27 12:50 5.4 9.0
2015-Apr-27 11:50 210 17 5.410.0
2015-Apr-27 10:50 210 5 5.4 9.0
2015-Apr-27 10:20 120 3 5.4 9.0
2015-Apr-27 09:50 5.4 8.0
2015-Apr-27 09:20 140 8 5.4 8.0
2015-Apr-27 08:50 130 8 5.4 7.0
2015-Apr-27 08:20 120 8 5.4 7.0
2015-Apr-27 07:50 100 8 5.4 6.0
2015-Apr-27 07:20 090 9 5.4 6.0
2015-Apr-27 06:50 100 9 5.4 5.0
2015-Apr-27 06:20 110 9 5.4 5.0
2015-Apr-27 05:50 110 8 5.4 4.0
2015-Apr-27 05:20 110 7 5.4 3.0
2015-Apr-27 04:50 120 7 5.4 3.0
2015-Apr-27 04:20 120 7 5.4 3.0
2015-Apr-27 03:50 120 6 5.4 3.0
2015-Apr-27 03:20 130 7 5.4 3.0
2015-Apr-27 02:50 140 8 5.4 3.0
2015-Apr-26 20:20 140 4 5.4 4.0
2015-Apr-26 19:50 220 2 5.4 3.0
2015-Apr-26 19:20 230 4 5.4 4.0
2015-Apr-26 18:50 230 5 5.4 5.0
2015-Apr-26 18:20 250 6 5.4 6.0
2015-Apr-26 17:50 270 3 5.4 6.0
2015-Apr-26 17:20 300 6 5.4 7.0
2015-Apr-26 15:50 270 8 5.4 8.0
2015-Apr-26 15:20 260 6 5.4 8.0
2015-Apr-26 14:20 280 6 5.4 8.0
2015-Apr-26 13:20 290 8 5.4 9.0
2015-Apr-26 12:50 300 11 5.4 7.0 Showers in the vicinity.
2015-Apr-26 12:20 270 9 5.4 9.0 Showers in the vicinity.
2015-Apr-26 11:20 5.4 8.0
2015-Apr-26 10:50 260 14 5.4 7.0